Time;durP1;ratioP1;P1;durP2;ratioP2;P2;SDS_P1;SDS_P2;PMS_P1;PMS_P2;Temp;Humidity;BMP_temperature;BMP_pressure;BME280_temperature;BME280_humidity;BME280_pressure;Samples;Min_cycle;Max_cycle;Signal;HPM_P1;HPM_P2
2023/12/19 00:01:00;;;;;;;52.40;21.80;;;;;;;4.17;100.00;102330.94;5006212;28;20029;-85
2023/12/19 00:03:27;;;;;;;62.15;22.88;;;;;;;4.19;100.00;102324.53;4995964;28;20040;-85
2023/12/19 00:05:52;;;;;;;50.42;20.73;;;;;;;4.19;100.00;102324.53;5037473;28;20039;-85
2023/12/19 00:08:19;;;;;;;55.63;21.75;;;;;;;4.21;100.00;102316.34;5016788;28;20033;-86
2023/12/19 00:10:44;;;;;;;56.70;21.58;;;;;;;4.19;100.00;102321.81;5004075;28;20108;-84
2023/12/19 00:13:10;;;;;;;50.78;21.60;;;;;;;4.24;100.00;102336.13;5035809;28;20489;-84
2023/12/19 00:15:36;;;;;;;54.45;21.50;;;;;;;4.19;100.00;102327.22;5014578;28;20051;-83
2023/12/19 00:18:02;;;;;;;56.05;21.25;;;;;;;4.24;100.00;102322.56;5010807;28;20041;-84
2023/12/19 00:20:28;;;;;;;54.70;19.83;;;;;;;4.23;100.00;102333.44;4990811;28;20032;-84
2023/12/19 00:22:54;;;;;;;49.50;19.95;;;;;;;4.24;100.00;102318.97;4987546;28;20041;-84
2023/12/19 00:25:22;;;;;;;56.80;22.08;;;;;;;4.25;100.00;102307.22;5000934;28;20056;-84
2023/12/19 00:27:48;;;;;;;52.30;23.00;;;;;;;4.24;100.00;102303.59;5019649;28;20018;-84
2023/12/19 00:30:14;;;;;;;74.32;25.02;;;;;;;4.26;100.00;102298.13;5021717;28;20579;-84
2023/12/19 00:32:39;;;;;;;57.67;22.20;;;;;;;4.21;100.00;102305.50;5004302;28;20406;-84
2023/12/19 00:35:06;;;;;;;58.97;22.20;;;;;;;4.26;100.00;102314.38;5009577;28;20826;-84
2023/12/19 00:37:31;;;;;;;55.97;22.60;;;;;;;4.27;100.00;102299.03;4999732;28;20030;-84
2023/12/19 00:39:57;;;;;;;58.53;22.83;;;;;;;4.27;100.00;102280.94;5019612;28;20025;-84
2023/12/19 00:42:22;;;;;;;61.75;23.33;;;;;;;4.30;100.00;102282.69;5003631;28;20030;-84
2023/12/19 00:44:49;;;;;;;59.75;24.40;;;;;;;4.32;100.00;102291.66;5004479;28;20076;-84
2023/12/19 00:47:15;;;;;;;57.95;22.88;;;;;;;4.30;100.00;102275.41;4994491;28;20026;-84
2023/12/19 00:49:40;;;;;;;59.13;23.58;;;;;;;4.30;100.00;102272.72;5017505;28;20402;-84
2023/12/19 00:52:05;;;;;;;65.18;23.30;;;;;;;4.34;100.00;102270.78;5001605;28;20096;-84
2023/12/19 00:54:31;;;;;;;76.40;24.73;;;;;;;4.33;100.00;102260.88;4985869;28;20040;-84
2023/12/19 00:56:56;;;;;;;64.25;24.35;;;;;;;4.33;100.00;102252.72;4985348;28;20038;-84
2023/12/19 00:59:21;;;;;;;66.85;25.05;;;;;;;4.31;100.00;102244.69;4985247;28;20510;-84
2023/12/19 01:01:47;;;;;;;76.10;24.98;;;;;;;4.34;100.00;102238.25;5031053;28;20041;-83
2023/12/19 01:04:12;;;;;;;66.35;22.30;;;;;;;4.32;100.00;102238.28;5034805;28;20048;-84
2023/12/19 01:06:38;;;;;;;62.25;25.40;;;;;;;4.36;100.00;102236.38;5005174;28;20048;-84
2023/12/19 01:09:05;;;;;;;78.47;23.38;;;;;;;4.33;100.00;102231.03;4993030;28;20037;-84
2023/12/19 01:11:30;;;;;;;72.97;24.45;;;;;;;4.34;100.00;102228.28;5015717;28;20103;-83
2023/12/19 01:13:56;;;;;;;52.95;20.70;;;;;;;4.34;100.00;102236.41;4998060;28;20030;-84
2023/12/19 01:16:21;;;;;;;68.22;25.80;;;;;;;4.38;100.00;102229.97;4984087;28;20029;-83
2023/12/19 01:18:46;;;;;;;72.63;25.55;;;;;;;4.35;100.00;102229.19;4990185;28;20037;-84
2023/12/19 01:21:13;;;;;;;59.67;21.67;;;;;;;4.33;100.00;102223.81;5011118;28;21813;-85
2023/12/19 01:23:39;;;;;;;62.28;21.83;;;;;;;4.36;100.00;102217.41;5017229;28;20044;-86
2023/12/19 01:26:04;;;;;;;69.00;24.58;;;;;;;4.38;100.00;102213.72;4984568;28;20025;-86
2023/12/19 01:28:30;;;;;;;56.38;20.55;;;;;;;4.33;100.00;102209.34;4988834;28;20029;-85
2023/12/19 01:30:56;;;;;;;69.45;23.48;;;;;;;4.36;100.00;102206.56;5002903;28;20029;-85
2023/12/19 01:33:22;;;;;;;67.32;21.75;;;;;;;4.35;100.00;102208.38;5013229;28;20038;-85
2023/12/19 01:35:48;;;;;;;66.88;23.00;;;;;;;4.37;100.00;102209.22;5002181;28;20029;-85
2023/12/19 01:38:14;;;;;;;79.28;26.35;;;;;;;4.40;100.00;102208.25;5015406;28;20549;-85
2023/12/19 01:40:40;;;;;;;67.75;25.50;;;;;;;4.38;100.00;102216.44;4988621;28;20029;-85
2023/12/19 01:43:16;;;;;;;71.25;24.40;;;;;;;4.39;100.00;102212.78;5044182;28;20053;-86
2023/12/19 01:45:42;;;;;;;64.97;23.38;;;;;;;4.38;100.00;102213.72;5043099;28;20032;-85
2023/12/19 01:48:07;;;;;;;64.22;21.75;;;;;;;4.34;100.00;102201.16;5018289;28;20025;-85
2023/12/19 01:50:33;;;;;;;70.57;24.55;;;;;;;4.36;100.00;102193.00;5068644;28;20067;-85
2023/12/19 01:52:59;;;;;;;71.97;24.23;;;;;;;4.38;100.00;102202.88;5056347;28;20060;-84
2023/12/19 01:55:27;;;;;;;69.75;23.70;;;;;;;4.39;100.00;102201.94;5036764;28;20034;-85
2023/12/19 01:57:56;;;;;;;68.30;24.88;;;;;;;4.38;100.00;102193.84;5044696;28;20028;-85
2023/12/19 02:00:22;;;;;;;81.35;25.83;;;;;;;4.40;100.00;102202.81;5052970;28;20037;-85
2023/12/19 02:02:52;;;;;;;84.72;26.13;;;;;;;4.46;100.00;102201.72;5038045;28;20486;-85
2023/12/19 02:05:18;;;;;;;71.60;23.83;;;;;;;4.42;100.00;102193.69;5046714;28;20037;-85
2023/12/19 02:07:44;;;;;;;74.95;23.85;;;;;;;4.45;100.00;102195.44;5038703;28;20581;-85
2023/12/19 02:10:11;;;;;;;68.53;22.27;;;;;;;4.45;100.00;102181.88;5016456;28;20543;-85
2023/12/19 02:12:37;;;;;;;80.57;25.25;;;;;;;4.46;100.00;102185.44;5053054;28;20033;-85
2023/12/19 02:15:04;;;;;;;78.20;26.15;;;;;;;4.48;100.00;102179.06;5036872;28;20029;-86
2023/12/19 02:17:30;;;;;;;76.03;22.70;;;;;;;4.46;100.00;102189.06;5036132;28;20029;-85
2023/12/19 02:19:55;;;;;;;78.93;23.02;;;;;;;4.49;100.00;102191.66;5063694;28;20025;-85
2023/12/19 02:22:20;;;;;;;85.28;27.38;;;;;;;4.51;100.00;102188.91;5022684;28;20516;-85
2023/12/19 02:24:48;;;;;;;78.13;25.73;;;;;;;4.55;100.00;102179.75;5039275;28;20064;-86
2023/12/19 02:27:15;;;;;;;78.28;24.80;;;;;;;4.57;100.00;102177.88;5060169;28;20028;-85
2023/12/19 02:29:40;;;;;;;72.70;24.60;;;;;;;4.57;100.00;102181.44;5026785;28;21196;-84
2023/12/19 02:32:06;;;;;;;70.05;25.65;;;;;;;4.56;100.00;102171.56;5010762;28;20123;-85
2023/12/19 02:34:31;;;;;;;85.95;26.48;;;;;;;4.58;100.00;102180.53;5037401;28;20045;-85
2023/12/19 02:36:57;;;;;;;64.82;22.63;;;;;;;4.59;100.00;102160.63;5039671;28;20031;-85
2023/12/19 02:39:22;;;;;;;63.50;22.33;;;;;;;4.60;100.00;102161.50;5040970;28;20040;-85
2023/12/19 02:41:48;;;;;;;68.32;22.63;;;;;;;4.53;100.00;102149.97;5043184;28;20032;-85
2023/12/19 02:44:14;;;;;;;68.55;22.58;;;;;;;4.59;100.00;102144.34;5036796;28;20091;-85
2023/12/19 02:46:40;;;;;;;70.03;23.90;;;;;;;4.61;100.00;102147.00;5025420;28;20033;-85
2023/12/19 02:49:05;;;;;;;78.32;25.88;;;;;;;4.61;100.00;102147.00;5060054;28;20054;-85
2023/12/19 02:51:31;;;;;;;73.38;25.13;;;;;;;4.63;100.00;102145.13;5025988;28;20502;-85
2023/12/19 02:53:57;;;;;;;84.15;26.90;;;;;;;4.64;100.00;102141.47;5049036;28;20060;-85
2023/12/19 02:56:23;;;;;;;78.82;26.10;;;;;;;4.62;100.00;102143.34;5024005;28;20112;-85
2023/12/19 02:58:49;;;;;;;68.88;24.27;;;;;;;4.60;100.00;102137.97;5037957;28;20029;-85
2023/12/19 03:01:15;;;;;;;67.10;21.98;;;;;;;4.64;100.00;102136.06;5055259;28;20029;-86
2023/12/19 03:03:42;;;;;;;65.03;23.13;;;;;;;4.67;100.00;102132.34;5034427;28;20037;-84
2023/12/19 03:06:08;;;;;;;75.35;24.35;;;;;;;4.64;100.00;102124.28;5037969;28;20083;-85
2023/12/19 03:08:36;;;;;;;69.95;23.60;;;;;;;4.66;100.00;102117.03;5041205;28;20017;-85
2023/12/19 03:11:02;;;;;;;67.30;23.17;;;;;;;4.64;100.00;102136.06;5019401;28;20037;-85
2023/12/19 03:13:28;;;;;;;64.63;21.67;;;;;;;4.62;100.00;102120.75;5020135;28;20375;-85
2023/12/19 03:15:54;;;;;;;71.90;24.73;;;;;;;4.66;100.00;102111.59;5018752;28;20029;-85
2023/12/19 03:18:24;;;;;;;67.65;23.05;;;;;;;4.59;100.00;102106.38;5037187;28;20052;-85
2023/12/19 03:20:53;;;;;;;69.97;22.63;;;;;;;4.62;100.00;102102.66;5041722;28;20036;-84
2023/12/19 03:23:20;;;;;;;69.18;23.70;;;;;;;4.61;100.00;102092.75;5056222;28;20055;-85
2023/12/19 03:25:45;;;;;;;68.22;24.60;;;;;;;4.64;100.00;102099.88;5050675;28;20040;-85
2023/12/19 03:28:12;;;;;;;60.63;21.10;;;;;;;4.60;100.00;102086.41;5042221;28;20394;-85
2023/12/19 03:30:38;;;;;;;69.25;23.02;;;;;;;4.63;100.00;102084.56;5045555;28;20039;-85
2023/12/19 03:33:04;;;;;;;67.43;23.15;;;;;;;4.62;100.00;102088.22;5018618;28;20116;-85
2023/12/19 03:35:30;;;;;;;68.10;23.95;;;;;;;4.64;100.00;102076.38;5032928;28;20067;-86
2023/12/19 03:37:55;;;;;;;71.82;25.40;;;;;;;4.61;100.00;102060.22;5021201;28;20041;-85
2023/12/19 03:40:21;;;;;;;83.72;26.48;;;;;;;4.64;100.00;102070.03;5061010;28;20032;-85
2023/12/19 03:42:48;;;;;;;67.35;24.48;;;;;;;4.64;100.00;102053.78;5050127;28;20034;-85
2023/12/19 03:45:14;;;;;;;79.57;26.02;;;;;;;4.67;100.00;102051.81;5011109;28;1156568;-86
2023/12/19 03:47:40;;;;;;;79.07;26.60;;;;;;;4.67;100.00;102056.38;5060581;28;20041;-86
2023/12/19 03:50:06;;;;;;;81.00;25.17;;;;;;;4.68;100.00;102045.47;5004682;28;20029;-86
2023/12/19 03:52:33;;;;;;;64.90;22.67;;;;;;;4.71;100.00;102039.94;5029689;28;20387;-86
2023/12/19 03:54:59;;;;;;;65.38;24.50;;;;;;;4.72;100.00;102027.25;5031826;28;20036;-84
2023/12/19 03:57:25;;;;;;;64.75;22.45;;;;;;;4.72;100.00;102028.16;5027388;28;20037;-84
2023/12/19 03:59:51;;;;;;;62.22;24.05;;;;;;;4.73;100.00;102020.91;5043498;28;20084;-84
2023/12/19 04:02:16;;;;;;;61.03;22.20;;;;;;;4.74;100.00;102012.72;5043355;28;20182;-84
2023/12/19 04:04:43;;;;;;;65.30;23.00;;;;;;;4.77;100.00;102006.28;5034971;28;20024;-84
2023/12/19 04:07:11;;;;;;;54.03;22.17;;;;;;;4.78;100.00;102008.94;5022762;28;20099;-84
2023/12/19 04:09:36;;;;;;;56.40;19.17;;;;;;;4.78;100.00;102008.94;5045262;28;20414;-84
2023/12/19 04:12:03;;;;;;;59.88;21.52;;;;;;;4.83;100.00;102011.47;5027913;28;20027;-84
2023/12/19 04:14:33;;;;;;;54.20;20.50;;;;;;;4.87;100.00;102012.25;5039856;28;20025;-84
2023/12/19 04:16:58;;;;;;;57.38;21.58;;;;;;;4.84;100.00;102013.25;5021539;28;20508;-84
2023/12/19 04:19:24;;;;;;;49.13;17.92;;;;;;;4.87;100.00;102017.69;5061005;28;20020;-85
2023/12/19 04:21:50;;;;;;;62.78;23.48;;;;;;;4.89;100.00;102018.53;5026901;28;20051;-85
2023/12/19 04:24:17;;;;;;;54.42;21.80;;;;;;;4.83;100.00;102000.63;5035179;28;20040;-84
2023/12/19 04:26:43;;;;;;;53.47;21.17;;;;;;;4.87;100.00;101995.97;5046155;28;20029;-85
2023/12/19 04:29:09;;;;;;;55.95;21.58;;;;;;;4.91;100.00;101992.22;5041409;28;20427;-85
2023/12/19 04:31:35;;;;;;;48.15;18.58;;;;;;;4.87;100.00;101990.53;5033460;28;20020;-85
2023/12/19 04:34:04;;;;;;;62.47;22.60;;;;;;;4.94;100.00;101992.09;5053085;28;20499;-85
2023/12/19 04:36:30;;;;;;;82.38;25.00;;;;;;;4.94;100.00;101986.69;5048936;28;20020;-85
2023/12/19 04:38:58;;;;;;;68.28;25.00;;;;;;;4.90;100.00;101974.16;5059113;28;21308;-85
2023/12/19 04:41:23;;;;;;;63.65;23.05;;;;;;;4.95;100.00;101969.44;5035430;28;20037;-84
2023/12/19 04:43:49;;;;;;;71.95;24.42;;;;;;;4.99;100.00;101964.78;5002587;28;20053;-84
2023/12/19 04:46:19;;;;;;;58.30;21.05;;;;;;;4.99;100.00;101953.94;5034611;28;20037;-84
2023/12/19 04:48:45;;;;;;;68.78;23.98;;;;;;;5.04;100.00;101954.66;5019103;28;20826;-85
2023/12/19 04:51:24;;;;;;;52.60;20.10;;;;;;;5.06;100.00;101942.78;5019112;28;20104;-86
2023/12/19 04:53:50;;;;;;;71.55;25.25;;;;;;;5.09;100.00;101939.06;5035116;28;20033;-85
2023/12/19 04:56:16;;;;;;;67.95;24.52;;;;;;;5.06;100.00;101931.91;5016667;28;20042;-85
2023/12/19 04:58:43;;;;;;;58.47;22.65;;;;;;;5.12;100.00;101938.94;4998561;28;20030;-84
2023/12/19 05:01:08;;;;;;;68.43;24.10;;;;;;;5.14;100.00;101927.06;5031348;28;20040;-85
2023/12/19 05:03:37;;;;;;;62.22;22.15;;;;;;;5.16;100.00;101929.72;5022698;28;20119;-86
2023/12/19 05:06:04;;;;;;;64.50;23.90;;;;;;;5.21;100.00;101921.41;4994865;28;20044;-85
2023/12/19 05:08:30;;;;;;;49.60;18.92;;;;;;;5.20;100.00;101927.78;5025240;28;20100;-85
2023/12/19 05:10:55;;;;;;;62.03;21.95;;;;;;;5.25;100.00;101923.06;5033508;28;20534;-85
2023/12/19 05:13:21;;;;;;;58.85;20.30;;;;;;;5.24;100.00;101908.59;5000811;28;20038;-85
2023/12/19 05:15:46;;;;;;;52.40;21.38;;;;;;;5.24;100.00;101911.31;5006675;28;20179;-84
2023/12/19 05:18:12;;;;;;;53.80;21.88;;;;;;;5.25;100.00;101910.38;5002741;28;20087;-85
2023/12/19 05:20:37;;;;;;;60.00;22.08;;;;;;;5.30;100.00;101902.91;5032906;28;20036;-85
2023/12/19 05:23:04;;;;;;;51.30;20.27;;;;;;;5.31;100.00;101901.09;5035334;28;20041;-84
2023/12/19 05:25:29;;;;;;;56.42;20.50;;;;;;;5.32;100.00;101900.16;5039043;28;20033;-84
2023/12/19 05:27:54;;;;;;;53.63;21.60;;;;;;;5.34;100.00;101899.16;5010459;28;20029;-84
2023/12/19 05:30:20;;;;;;;56.28;22.27;;;;;;;5.35;100.00;101910.88;5016958;28;20403;-85
2023/12/19 05:32:45;;;;;;;58.25;21.17;;;;;;;5.36;100.00;101911.75;5023221;28;20037;-84
2023/12/19 05:35:11;;;;;;;43.05;16.52;;;;;;;5.36;100.00;101923.50;5021479;28;20575;-84
2023/12/19 05:37:36;;;;;;;61.72;21.90;;;;;;;5.39;100.00;101922.50;5019807;28;20033;-84
2023/12/19 05:40:02;;;;;;;48.42;20.70;;;;;;;5.38;100.00;101929.78;4986676;28;20509;-85
2023/12/19 05:42:27;;;;;;;52.83;19.27;;;;;;;5.44;100.00;101936.78;5029019;28;20029;-83
2023/12/19 05:44:52;;;;;;;54.35;21.08;;;;;;;5.46;100.00;101927.63;5015736;28;20060;-85
2023/12/19 05:47:18;;;;;;;44.08;18.02;;;;;;;5.48;100.00;101930.28;4996028;28;20073;-85
2023/12/19 05:49:44;;;;;;;51.58;20.00;;;;;;;5.48;100.00;101912.16;4999602;28;20065;-85
2023/12/19 05:52:09;;;;;;;56.92;21.95;;;;;;;5.51;100.00;101913.88;4986396;28;20036;-87
2023/12/19 05:54:34;;;;;;;54.00;22.48;;;;;;;5.52;100.00;101902.91;5002290;28;20037;-85
2023/12/19 05:57:00;;;;;;;51.42;21.67;;;;;;;5.53;100.00;101903.81;4986329;28;20127;-85
2023/12/19 05:59:25;;;;;;;51.03;22.20;;;;;;;5.57;100.00;101912.72;5017689;28;20132;-85
2023/12/19 06:01:51;;;;;;;55.40;21.85;;;;;;;5.58;100.00;101906.34;5015166;28;20041;-85
2023/12/19 06:04:16;;;;;;;60.38;22.30;;;;;;;5.62;100.00;101903.41;5018188;28;20029;-85
2023/12/19 06:06:44;;;;;;;48.55;19.83;;;;;;;5.62;100.00;101891.69;5014875;28;20038;-85
2023/12/19 06:09:13;;;;;;;59.38;22.52;;;;;;;5.62;100.00;101889.84;4987739;28;20132;-85
2023/12/19 06:11:38;;;;;;;53.10;21.80;;;;;;;5.66;100.00;101872.47;5013484;28;21950;-86
2023/12/19 06:14:05;;;;;;;49.13;19.95;;;;;;;5.64;100.00;101865.31;4990975;28;20124;-86
2023/12/19 06:16:31;;;;;;;47.80;19.27;;;;;;;5.67;100.00;101849.81;5003687;28;20044;-85
2023/12/19 06:18:56;;;;;;;47.35;20.60;;;;;;;5.74;100.00;101854.94;5017125;28;20025;-85
2023/12/19 06:21:22;;;;;;;46.40;19.15;;;;;;;5.77;100.00;101858.44;5000501;28;20178;-85
2023/12/19 06:23:47;;;;;;;56.22;21.90;;;;;;;5.78;100.00;101871.06;5002458;28;20506;-86
2023/12/19 06:26:14;;;;;;;56.55;20.60;;;;;;;5.80;100.00;101865.56;5008203;28;20566;-86
2023/12/19 06:28:39;;;;;;;49.95;19.48;;;;;;;5.84;100.00;101853.63;5003841;28;20056;-85
2023/12/19 06:31:06;;;;;;;43.40;18.50;;;;;;;5.84;100.00;101850.91;5011402;28;20084;-86
2023/12/19 06:33:31;;;;;;;41.78;18.42;;;;;;;5.83;100.00;101849.13;5003777;28;20029;-86
2023/12/19 06:35:58;;;;;;;51.75;22.13;;;;;;;5.86;100.00;101846.28;5005467;28;20505;-85
2023/12/19 06:38:23;;;;;;;36.45;17.80;;;;;;;5.87;100.00;101848.94;5024643;28;20479;-85
2023/12/19 06:40:49;;;;;;;42.97;18.40;;;;;;;5.88;100.00;101852.53;5014364;28;20041;-84
2023/12/19 06:43:14;;;;;;;47.88;19.33;;;;;;;5.92;100.00;101834.25;5006064;28;20072;-85
2023/12/19 06:45:39;;;;;;;43.95;18.48;;;;;;;5.97;100.00;101843.13;5003007;28;20051;-84
2023/12/19 06:48:06;;;;;;;44.13;19.73;;;;;;;5.95;100.00;101845.91;5020498;28;20537;-84
2023/12/19 06:50:34;;;;;;;34.50;16.27;;;;;;;5.98;100.00;101848.47;5020963;28;20537;-84
2023/12/19 06:52:59;;;;;;;42.33;18.25;;;;;;;5.98;100.00;101850.34;4986854;28;20029;-84
2023/12/19 06:55:25;;;;;;;30.45;12.30;;;;;;;6.00;100.00;101848.41;5001131;28;20596;-85
2023/12/19 06:57:51;;;;;;;43.90;17.17;;;;;;;6.07;100.00;101839.94;5016012;28;20043;-85
2023/12/19 07:00:17;;;;;;;47.55;19.60;;;;;;;6.03;100.00;101838.31;4998740;28;20402;-85
2023/12/19 07:02:42;;;;;;;44.08;18.35;;;;;;;6.05;100.00;101844.56;5035822;28;20041;-86
2023/12/19 07:05:08;;;;;;;33.65;16.10;;;;;;;6.09;100.00;101841.72;5031515;28;20506;-87
2023/12/19 07:07:33;;;;;;;31.75;15.48;;;;;;;6.10;100.00;101841.66;5019745;28;20111;-86
2023/12/19 07:10:01;;;;;;;44.45;18.92;;;;;;;6.20;100.00;101839.41;5017327;28;20060;-89
2023/12/19 07:12:26;;;;;;;47.38;18.33;;;;;;;6.12;100.00;101839.75;5029415;28;20083;-88
2023/12/19 07:14:52;;;;;;;40.22;16.67;;;;;;;6.18;100.00;101844.00;5019403;28;20034;-88
2023/12/19 07:17:18;;;;;;;38.47;16.35;;;;;;;6.15;100.00;101844.13;5007298;28;20038;-91
2023/12/19 07:19:44;;;;;;;39.15;16.23;;;;;;;6.16;100.00;101841.34;5003241;28;20052;-87
2023/12/19 07:22:11;;;;;;;42.47;17.75;;;;;;;6.17;100.00;101834.09;4996073;28;20440;-88
2023/12/19 07:24:36;;;;;;;33.78;17.40;;;;;;;6.17;100.00;101825.94;5034095;28;20480;-85
2023/12/19 07:27:01;;;;;;;35.67;15.55;;;;;;;6.15;100.00;101825.09;5024688;28;20086;-86
2023/12/19 07:29:27;;;;;;;42.72;17.38;;;;;;;6.18;100.00;101827.69;4998125;28;20030;-88
2023/12/19 07:31:53;;;;;;;31.95;14.75;;;;;;;6.17;100.00;101829.53;4999310;28;20120;-90
2023/12/19 07:34:18;;;;;;;36.60;16.88;;;;;;;6.17;100.00;101818.66;5010446;28;20029;-89
2023/12/19 07:36:45;;;;;;;39.33;17.90;;;;;;;6.17;100.00;101821.38;5012282;28;20408;-87
2023/12/19 07:39:11;;;;;;;33.67;15.75;;;;;;;6.17;100.00;101824.09;5014259;28;20029;-86
2023/12/19 07:41:37;;;;;;;36.60;16.25;;;;;;;6.18;100.00;101822.25;4993099;28;20033;-88
2023/12/19 07:44:09;;;;;;;33.80;15.57;;;;;;;6.22;100.00;101819.31;5016759;28;20046;-90
2023/12/19 07:46:40;;;;;;;33.90;15.43;;;;;;;6.24;100.00;101827.41;5011951;28;20025;-90
2023/12/19 07:49:05;;;;;;;35.33;15.65;;;;;;;6.24;100.00;101828.28;5003999;28;20025;-87
2023/12/19 07:51:31;;;;;;;29.80;15.07;;;;;;;6.26;100.00;101836.38;5009223;28;20037;-85
2023/12/19 07:53:57;;;;;;;31.05;15.80;;;;;;;6.25;100.00;101829.19;4996135;28;20022;-87
2023/12/19 07:56:22;;;;;;;28.33;12.65;;;;;;;6.25;100.00;101821.03;4990162;28;20076;-86
2023/12/19 07:58:50;;;;;;;36.38;14.10;;;;;;;6.27;100.00;101827.28;5020126;28;20093;-86
2023/12/19 08:01:16;;;;;;;30.45;13.90;;;;;;;6.27;100.00;101826.41;5009058;28;20044;-87
2023/12/19 08:03:43;;;;;;;27.42;13.93;;;;;;;6.31;100.00;101830.75;5019071;28;20115;-87
2023/12/19 08:06:09;;;;;;;29.75;15.18;;;;;;;6.30;100.00;101826.28;4995172;28;20033;-88
2023/12/19 08:08:34;;;;;;;32.40;13.82;;;;;;;6.32;100.00;101818.91;5006324;28;20046;-87
2023/12/19 08:11:00;;;;;;;30.42;14.70;;;;;;;6.31;100.00;101815.28;5016821;28;20041;-86
2023/12/19 08:13:25;;;;;;;29.20;14.95;;;;;;;6.34;100.00;101806.13;5021876;28;20028;-86
2023/12/19 08:15:51;;;;;;;36.00;14.88;;;;;;;6.31;100.00;101804.41;5033526;28;20048;-86
2023/12/19 08:18:16;;;;;;;29.20;11.10;;;;;;;6.31;100.00;101809.84;5017692;28;20402;-87
2023/12/19 08:20:43;;;;;;;30.35;13.88;;;;;;;6.34;100.00;101811.56;5022133;28;20029;-85
2023/12/19 08:23:15;;;;;;;34.38;14.20;;;;;;;6.34;100.00;101806.13;5000595;28;20037;-88
2023/12/19 08:25:44;;;;;;;28.33;13.88;;;;;;;6.34;100.00;101801.56;4994084;28;20037;-88
2023/12/19 08:28:09;;;;;;;29.88;13.82;;;;;;;6.34;100.00;101807.00;4994100;28;20014;-88
2023/12/19 08:30:35;;;;;;;31.73;14.93;;;;;;;6.34;100.00;101789.81;4993820;28;20124;-89
2023/12/19 08:33:02;;;;;;;31.05;14.00;;;;;;;6.36;100.00;101801.50;5020203;28;20029;-89
2023/12/19 08:35:29;;;;;;;33.67;13.38;;;;;;;6.33;100.00;101798.91;5032984;28;20112;-89
2023/12/19 08:37:55;;;;;;;26.67;13.20;;;;;;;6.38;100.00;101800.47;5009346;28;20025;-89
2023/12/19 08:40:21;;;;;;;26.95;12.43;;;;;;;6.37;100.00;101787.81;5032284;28;20115;-88
2023/12/19 08:42:48;;;;;;;32.65;13.80;;;;;;;6.37;100.00;101774.22;5009517;28;20034;-88
2023/12/19 08:45:19;;;;;;;25.25;12.48;;;;;;;6.35;100.00;101778.00;5031392;28;20079;-88
2023/12/19 08:47:46;;;;;;;33.25;13.88;;;;;;;6.33;100.00;101772.63;5031764;28;20023;-87
2023/12/19 08:50:13;;;;;;;30.73;13.82;;;;;;;6.28;100.00;101769.22;4999979;28;20076;-87
2023/12/19 08:52:40;;;;;;;26.48;13.18;;;;;;;6.30;100.00;101780.03;5034770;28;20107;-88
2023/12/19 08:55:08;;;;;;;28.05;13.98;;;;;;;6.29;100.00;101794.59;5040465;28;20080;-89
2023/12/19 08:57:44;;;;;;;37.00;15.00;;;;;;;6.25;100.00;101777.53;5010240;28;20033;-87
2023/12/19 09:00:12;;;;;;;32.33;14.02;;;;;;;6.32;100.00;101778.13;5021698;28;20028;-87
2023/12/19 09:02:44;;;;;;;43.00;14.70;;;;;;;6.26;100.00;101773.84;5015403;28;20037;-87
2023/12/19 09:05:14;;;;;;;30.30;14.90;;;;;;;6.24;100.00;101775.75;5028603;28;20036;-87
2023/12/19 09:07:41;;;;;;;35.95;14.40;;;;;;;6.17;100.00;101771.56;5005270;28;20029;-87
2023/12/19 09:10:07;;;;;;;32.92;16.52;;;;;;;6.12;100.00;101769.03;5013492;28;20033;-87
2023/12/19 09:12:35;;;;;;;41.92;15.63;;;;;;;6.14;100.00;101764.41;5031037;28;20034;-87
2023/12/19 09:15:02;;;;;;;43.75;16.75;;;;;;;6.14;100.00;101755.38;5001696;28;20033;-86
2023/12/19 09:17:28;;;;;;;39.17;16.00;;;;;;;6.11;100.00;101752.81;4997836;28;20120;-87
2023/12/19 09:19:55;;;;;;;36.97;15.80;;;;;;;6.10;100.00;101751.94;5017710;28;20555;-87
2023/12/19 09:22:21;;;;;;;30.35;15.48;;;;;;;6.12;100.00;101762.75;5035454;28;20025;-86
2023/12/19 09:24:47;;;;;;;34.42;15.85;;;;;;;6.14;100.00;101758.09;5017424;28;20029;-88
2023/12/19 09:27:12;;;;;;;25.88;12.52;;;;;;;6.07;100.00;101747.50;5007857;28;20376;-89
2023/12/19 09:29:38;;;;;;;32.58;13.85;;;;;;;6.11;100.00;101752.81;5001761;28;20036;-88
2023/12/19 09:32:05;;;;;;;32.47;15.45;;;;;;;6.28;100.00;101739.31;5018764;28;20031;-89
2023/12/19 09:34:31;;;;;;;37.28;15.82;;;;;;;6.26;100.00;101741.19;5019291;28;20517;-88
2023/12/19 09:36:57;;;;;;;35.88;14.88;;;;;;;6.21;100.00;101733.25;5036721;28;20029;-88
2023/12/19 09:39:23;;;;;;;30.52;14.50;;;;;;;6.14;100.00;101741.78;5034905;28;20083;-88
2023/12/19 09:41:49;;;;;;;31.88;15.00;;;;;;;6.12;100.00;101730.13;5002031;28;20398;-89
2023/12/19 09:44:14;;;;;;;23.63;11.52;;;;;;;6.11;100.00;101737.38;5000046;28;20053;-89
2023/12/19 09:46:47;;;;;;;35.25;13.77;;;;;;;6.16;100.00;101734.44;4997523;28;20476;-88
2023/12/19 09:49:13;;;;;;;24.20;13.95;;;;;;;6.17;100.00;101730.78;5022625;28;20025;-89
2023/12/19 09:51:43;;;;;;;28.15;13.02;;;;;;;6.17;100.00;101728.06;5017256;28;20044;-89
2023/12/19 09:54:09;;;;;;;40.10;14.57;;;;;;;6.13;100.00;101734.56;5020416;28;20095;-89
2023/12/19 09:56:35;;;;;;;24.52;11.93;;;;;;;6.13;100.00;101732.72;5033515;28;20045;-89
2023/12/19 09:59:03;;;;;;;21.80;11.57;;;;;;;6.17;100.00;101725.34;5019224;28;20124;-87
2023/12/19 10:01:29;;;;;;;26.45;12.23;;;;;;;6.15;100.00;101716.34;5018165;28;20025;-87
2023/12/19 10:03:55;;;;;;;22.23;11.43;;;;;;;6.17;100.00;101706.31;4999491;28;20035;-88
2023/12/19 10:06:24;;;;;;;25.33;12.18;;;;;;;6.14;100.00;101707.31;5042865;28;20041;-89
2023/12/19 10:08:53;;;;;;;23.75;12.70;;;;;;;6.13;100.00;101702.81;5023124;28;20036;-89
2023/12/19 10:11:21;;;;;;;19.73;9.93;;;;;;;6.13;100.00;101699.22;5035458;28;20486;-88
2023/12/19 10:13:47;;;;;;;22.48;12.00;;;;;;;6.16;100.00;101704.53;5011557;28;20022;-89
2023/12/19 10:16:20;;;;;;;21.92;11.57;;;;;;;6.12;100.00;101695.63;5031637;28;20025;-86
2023/12/19 10:18:55;;;;;;;19.15;10.65;;;;;;;6.12;100.00;101686.63;5026920;28;20036;-88
2023/12/19 10:21:23;;;;;;;17.95;9.60;;;;;;;6.12;100.00;101681.19;5040190;28;20104;-88
2023/12/19 10:23:48;;;;;;;19.05;9.82;;;;;;;6.15;100.00;101686.44;5005851;28;20043;-88
2023/12/19 10:26:16;;;;;;;20.20;9.82;;;;;;;6.16;100.00;101674.63;5006538;28;20034;-89
2023/12/19 10:28:43;;;;;;;25.38;10.73;;;;;;;6.19;100.00;101677.19;5018242;28;20399;-88
2023/12/19 10:31:15;;;;;;;20.35;9.07;;;;;;;6.20;100.00;101670.81;5021722;28;20465;-88
2023/12/19 10:33:41;;;;;;;18.60;10.35;;;;;;;6.23;100.00;101671.53;5012385;28;20068;-88
2023/12/19 10:36:07;;;;;;;19.48;9.82;;;;;;;6.23;100.00;101673.34;5036910;28;20029;-89
2023/12/19 10:38:47;;;;;;;24.52;11.63;;;;;;;6.21;100.00;101665.28;5008237;28;20034;-89
2023/12/19 10:41:24;;;;;;;20.90;9.65;;;;;;;6.23;100.00;101657.94;5021293;28;20033;-88
2023/12/19 10:43:50;;;;;;;19.67;9.75;;;;;;;6.25;100.00;101647.88;5043784;28;20049;-89
2023/12/19 10:46:24;;;;;;;23.23;9.68;;;;;;;6.25;100.00;101650.59;5017580;28;20029;-89
2023/12/19 10:48:51;;;;;;;20.08;9.63;;;;;;;6.27;100.00;101641.50;5036147;28;20095;-88
2023/12/19 10:51:27;;;;;;;18.63;9.82;;;;;;;6.28;100.00;101622.38;5018651;28;20029;-89
2023/12/19 10:54:01;;;;;;;19.65;10.75;;;;;;;6.28;100.00;101619.66;5020752;28;20025;-89
2023/12/19 10:56:39;;;;;;;21.02;9.73;;;;;;;6.35;100.00;101617.53;5019994;28;20021;-89
2023/12/19 10:59:07;;;;;;;16.45;10.27;;;;;;;6.33;100.00;101625.75;5039318;28;20028;-88
2023/12/19 11:01:40;;;;;;;15.98;8.63;;;;;;;6.29;100.00;101610.53;5017983;28;20021;-88
2023/12/19 11:04:21;;;;;;;18.63;9.35;;;;;;;6.31;100.00;101611.31;5036930;28;20025;-89
2023/12/19 11:06:53;;;;;;;17.65;9.68;;;;;;;6.52;100.00;101608.50;5017800;28;20025;-86